Island Supplier — WCZ2444 — position and weather

sailwx.info

Track history (hours):
 
Tides and Currents Weather Stations Pressure Air Temp Water Temp Dewpoint Dewpoint Depression Visibility Wind Speed Wind Dir Waves Ship Positions

Island Supplier

Owner: Santa Catalina Island Resort Services, Inc., AVALON, CA. More information available from US FCC via Universal Licensing System and Coast Guard Vessel Documentation Center.

Last reported at 2016-Apr-28 15:19 UTC. Time now 2016-May-03 14:24 UTC.
Position N 33°43' W 118°16'.

Length 22 m; draft 1 m.

Type: Cargo ship. MMSI: 366765690.

Date/timePositionNaut miles runAvg speedWind from/ knotsBaromVisibWave heightAir tempDewpointWater temp
2016-Apr-28 15:19N 33°43' W 118°16'1 1.1
2016-Apr-28 14:30N 33°44' W 118°16'1 0.0
2016-Apr-26 23:33N 33°45' W 118°16'2 1.6
2016-Apr-26 22:33N 33°43' W 118°16'5 5.2
2016-Apr-26 21:33N 33°39' W 118°20'  
2016-Apr-21 15:33N 33°30' W 118°35'7 6.6
2016-Apr-21 14:33N 33°34' W 118°28'6 6.4
2016-Apr-21 13:33N 33°38' W 118°22'6 6.5
2016-Apr-21 12:33N 33°42' W 118°16'3 0.1
2016-Apr-20 01:26N 33°45' W 118°16'19 5.0
2016-Apr-19 21:33N 33°31' W 118°33'10 0.4
2016-Apr-18 18:21N 33°37' W 118°23'10 4.9
2016-Apr-18 16:24N 33°45' W 118°16'0 0.0
2016-Apr-18 15:33N 33°45' W 118°16'  
Track history (hours):
 
Tides and Currents Weather Stations Pressure Air Temp Water Temp Dewpoint Dewpoint Depression Visibility Wind Speed Wind Dir Waves Ship Positions

Island Supplier

Owner: Santa Catalina Island Resort Services, Inc., AVALON, CA. More information available from US FCC via Universal Licensing System and Coast Guard Vessel Documentation Center.

Last reported at 2016-Apr-28 15:19 UTC. Time now 2016-May-03 14:24 UTC.
Position N 33°43' W 118°16'.

Length 22 m; draft 1 m.

Type: Cargo ship. MMSI: 366765690.

Date/timePositionNaut miles runAvg speedWind from/ knotsBaromVisibWave heightAir tempDewpointWater temp
2016-Apr-28 15:19N 33°43' W 118°16'1 1.1
2016-Apr-28 14:30N 33°44' W 118°16'1 0.0
2016-Apr-26 23:33N 33°45' W 118°16'2 1.6
2016-Apr-26 22:33N 33°43' W 118°16'5 5.2
2016-Apr-26 21:33N 33°39' W 118°20'  
2016-Apr-21 15:33N 33°30' W 118°35'7 6.6
2016-Apr-21 14:33N 33°34' W 118°28'6 6.4
2016-Apr-21 13:33N 33°38' W 118°22'6 6.5
2016-Apr-21 12:33N 33°42' W 118°16'3 0.1
2016-Apr-20 01:26N 33°45' W 118°16'19 5.0
2016-Apr-19 21:33N 33°31' W 118°33'10 0.4
2016-Apr-18 18:21N 33°37' W 118°23'10 4.9
2016-Apr-18 16:24N 33°45' W 118°16'0 0.0
2016-Apr-18 15:33N 33°45' W 118°16'  

Dump ship's entire track history